Time;durP1;ratioP1;P1;durP2;ratioP2;P2;SDS_P1;SDS_P2;PMS_P1;PMS_P2;Temp;Humidity;BMP_temperature;BMP_pressure;BME280_temperature;BME280_humidity;BME280_pressure;Samples;Min_cycle;Max_cycle;Signal;HPM_P1;HPM_P2
2022/05/24 00:01:23;;;;;;;21.00;11.18;;;;;;;13.00;100.00;99967.28;4988282;28;20050;-32
2022/05/24 00:03:48;;;;;;;23.05;10.82;;;;;;;13.01;100.00;99960.84;5015901;28;20030;-30
2022/05/24 00:06:14;;;;;;;26.48;11.25;;;;;;;13.01;100.00;99966.25;5007005;28;20038;-31
2022/05/24 00:08:39;;;;;;;31.17;10.10;;;;;;;13.02;100.00;99959.78;4982503;28;20045;-32
2022/05/24 00:11:05;;;;;;;21.58;10.30;;;;;;;13.07;100.00;99951.88;4973131;28;20037;-32
2022/05/24 00:13:31;;;;;;;26.50;11.38;;;;;;;13.08;100.00;99950.81;4982048;28;20033;-30
2022/05/24 00:15:56;;;;;;;24.60;9.25;;;;;;;13.04;100.00;99957.72;4998197;28;20090;-32
2022/05/24 00:18:25;;;;;;;34.85;8.35;;;;;;;13.03;100.00;99964.97;4999418;28;20581;-31
2022/05/24 00:21:02;;;;;;;45.03;7.78;;;;;;;13.03;100.00;99956.84;4998118;28;20027;-31
2022/05/24 00:23:29;;;;;;;34.03;6.88;;;;;;;12.96;100.00;99969.59;4997968;28;20035;-32
2022/05/24 00:25:58;;;;;;;20.67;5.95;;;;;;;12.99;100.00;99960.25;4998098;28;20042;-31
2022/05/24 00:28:26;;;;;;;30.23;6.05;;;;;;;12.98;99.96;99959.41;4997961;28;20039;-33
2022/05/24 00:30:52;;;;;;;35.97;7.18;;;;;;;12.98;99.77;99950.47;4980988;28;20014;-31
2022/05/24 00:33:17;;;;;;;28.42;5.40;;;;;;;12.99;99.43;99954.84;4997980;28;20030;-33
2022/05/24 00:35:44;;;;;;;33.00;6.38;;;;;;;12.95;98.98;99938.22;4990422;28;20053;-32
2022/05/24 00:38:12;;;;;;;32.92;6.57;;;;;;;12.92;98.51;99944.88;4998955;28;20268;-32
2022/05/24 00:40:46;;;;;;;;;;;;;;;12.92;97.90;99942.19;5016931;28;20022;-31
2022/05/24 00:43:35;;;;;;;28.83;6.30;;;;;;;12.93;97.74;99924.97;5002481;28;19922;-31
2022/05/24 00:46:14;;;;;;;32.20;7.95;;;;;;;12.88;97.29;99932.88;5008588;28;20019;-32
2022/05/24 00:48:48;;;;;;;39.05;7.50;;;;;;;12.91;97.22;99950.53;4981454;28;20027;-32
2022/05/24 00:51:15;;;;;;;34.95;7.97;;;;;;;12.89;97.15;99945.34;4985417;28;20034;-31
2022/05/24 00:53:46;;;;;;;30.20;9.27;;;;;;;12.89;97.62;99942.63;4980814;28;20033;-32
2022/05/24 00:56:18;;;;;;;36.30;8.82;;;;;;;12.88;97.71;99951.78;4997661;28;20019;-30
2022/05/24 00:59:04;;;;;;;38.22;9.55;;;;;;;12.88;97.86;99954.50;4980455;28;20022;-32
2022/05/24 01:01:44;;;;;;;32.42;10.07;;;;;;;12.88;98.13;99950.97;5002005;28;20066;-30
2022/05/24 01:04:13;;;;;;;32.60;10.68;;;;;;;12.90;98.39;99952.41;5017067;28;20033;-32
2022/05/24 01:06:38;;;;;;;41.50;11.75;;;;;;;12.94;98.57;99953.59;5016748;28;20077;-32
2022/05/24 01:09:09;;;;;;;47.78;12.98;;;;;;;12.95;98.80;99949.03;5007796;28;20027;-33
2022/05/24 01:11:39;;;;;;;28.27;10.30;;;;;;;12.93;98.68;99948.44;5006723;28;20029;-31
2022/05/24 01:14:07;;;;;;;34.97;11.25;;;;;;;12.87;98.22;99947.41;5005566;28;20033;-31
2022/05/24 01:16:32;;;;;;;29.20;10.30;;;;;;;12.87;97.74;99954.69;4981634;28;20022;-32
2022/05/24 01:18:59;;;;;;;35.60;10.82;;;;;;;12.84;97.61;99947.88;4997224;28;20054;-32
2022/05/24 01:21:25;;;;;;;32.72;10.52;;;;;;;12.86;97.55;99944.97;5004869;28;20015;-32
2022/05/24 01:24:15;;;;;;;37.70;10.88;;;;;;;12.86;97.61;99950.34;5016337;28;20101;-32
2022/05/24 01:26:50;;;;;;;30.77;10.25;;;;;;;12.84;97.33;99950.56;4999482;28;20114;-29
2022/05/24 01:29:18;;;;;;;32.75;11.00;;;;;;;12.82;97.26;99949.13;4999630;28;20054;-32
2022/05/24 01:37:12;;;;;;;37.72;11.85;;;;;;;12.81;97.32;99948.31;4999881;28;20042;-31
2022/05/24 01:39:39;;;;;;;30.02;11.80;;;;;;;12.76;97.41;99944.59;5016588;28;20018;-32
2022/05/24 01:42:05;;;;;;;46.50;13.88;;;;;;;12.71;97.44;99953.34;4997836;28;20039;-31
2022/05/24 01:44:47;;;;;;;37.83;12.98;;;;;;;12.69;97.44;99933.84;4999068;28;20026;-29
2022/05/24 01:47:14;;;;;;;34.28;14.20;;;;;;;12.73;97.76;99940.47;4999117;28;20018;-31
2022/05/24 01:49:42;;;;;;;36.15;13.77;;;;;;;12.72;97.75;99938.81;4997526;28;20026;-32
2022/05/24 01:52:10;;;;;;;;;;;;;;;12.71;97.72;99935.28;4999492;28;20025;-32
2022/05/24 01:54:41;;;;;;;50.17;15.35;;;;;;;12.74;97.93;99923.22;4998977;28;19909;-29
2022/05/24 01:57:10;;;;;;;46.42;15.55;;;;;;;12.75;97.82;99924.88;5002532;28;20026;-31
2022/05/24 01:59:37;;;;;;;42.30;15.18;;;;;;;12.73;97.72;99929.66;5011103;28;20077;-32
2022/05/24 02:02:03;;;;;;;30.00;14.63;;;;;;;12.81;97.70;99926.69;5001194;28;20037;-32
2022/05/24 02:04:31;;;;;;;37.58;14.57;;;;;;;12.81;97.89;99929.41;5014864;28;20069;-30
2022/05/24 02:07:01;;;;;;;37.47;15.80;;;;;;;12.79;98.21;99922.56;5019839;28;20048;-32
2022/05/24 02:09:27;;;;;;;47.70;15.75;;;;;;;12.79;98.78;99930.66;5019570;28;20030;-32
2022/05/24 02:11:53;;;;;;;46.63;16.10;;;;;;;12.73;99.59;99917.00;5006935;28;20041;-38
2022/05/24 02:14:23;;;;;;;45.92;16.42;;;;;;;12.66;100.00;99923.47;4978052;28;20437;-31
2022/05/24 02:17:14;;;;;;;39.35;16.40;;;;;;;12.62;100.00;99925.81;4976962;28;20058;-31
2022/05/24 02:19:43;;;;;;;46.85;15.90;;;;;;;12.59;100.00;99922.72;4965706;28;20026;-35
2022/05/24 02:22:15;;;;;;;37.47;15.10;;;;;;;12.60;100.00;99927.06;4995383;28;20034;-34
2022/05/24 02:24:40;;;;;;;46.50;14.95;;;;;;;12.58;100.00;99919.16;5002067;28;20067;-33
2022/05/24 02:27:05;;;;;;;47.55;15.27;;;;;;;12.59;100.00;99925.41;5017759;28;20042;-32
2022/05/24 02:29:31;;;;;;;41.95;14.43;;;;;;;12.59;100.00;99923.53;5002786;28;20027;-31
2022/05/24 02:31:58;;;;;;;42.67;13.63;;;;;;;12.59;100.00;99917.31;4999877;28;20065;-31
2022/05/24 02:34:23;;;;;;;52.40;13.85;;;;;;;12.57;100.00;99914.00;5041607;22;20054;-78
2022/05/24 02:36:49;;;;;;;35.67;12.35;;;;;;;12.58;100.00;99916.47;4978396;28;20033;-78
2022/05/24 02:39:15;;;;;;;35.67;12.60;;;;;;;12.61;100.00;99920.59;4995081;28;20018;-78
2022/05/24 02:41:40;;;;;;;32.42;11.13;;;;;;;12.61;100.00;99926.00;4995028;28;20102;-77
2022/05/24 02:44:09;;;;;;;27.70;9.82;;;;;;;12.57;100.00;99925.63;4977903;28;20103;-77
2022/05/24 02:46:37;;;;;;;32.85;9.00;;;;;;;12.54;100.00;99919.84;4994735;28;20081;-78
2022/05/24 02:49:02;;;;;;;37.95;8.27;;;;;;;12.48;100.00;99927.75;4977399;28;20382;-76
2022/05/24 02:51:28;;;;;;;30.25;6.03;;;;;;;12.46;100.00;99924.44;4994802;28;20069;-78
2022/05/24 02:53:54;;;;;;;33.78;7.72;;;;;;;12.45;100.00;99930.91;4995126;28;20386;-76
2022/05/24 02:56:19;;;;;;;21.55;5.32;;;;;;;12.40;100.00;99928.03;4995944;28;20035;-79
2022/05/24 02:58:45;;;;;;;22.88;5.03;;;;;;;12.41;100.00;99929.66;4979548;28;20057;-79
2022/05/24 03:01:18;;;;;;;32.28;5.20;;;;;;;12.40;100.00;99930.72;5004384;28;20049;-82
2022/05/24 03:03:43;;;;;;;36.58;5.78;;;;;;;12.40;99.97;99932.56;4999521;28;20035;-80
2022/05/24 03:06:08;;;;;;;37.15;5.60;;;;;;;12.39;100.00;99920.94;4998666;28;20054;-79
2022/05/24 03:11:17;;;;;;;24.15;4.60;;;;;;;12.34;99.52;99928.88;4995725;28;20544;-77
2022/05/24 03:16:27;;;;;;;17.02;3.42;;;;;;;12.29;98.06;99934.06;4994505;28;20045;-77
2022/05/24 03:18:52;;;;;;;21.27;3.80;;;;;;;12.26;97.46;99932.63;4995172;28;20034;-75
2022/05/24 03:21:18;;;;;;;13.52;3.40;;;;;;;12.31;97.24;99932.00;4978577;28;20114;-76
2022/05/24 03:23:43;;;;;;;19.85;4.10;;;;;;;12.28;96.49;99943.22;4994743;28;20022;-76
2022/05/24 03:26:08;;;;;;;20.77;3.53;;;;;;;12.25;96.39;99949.06;4995753;28;20053;-78
2022/05/24 03:28:34;;;;;;;13.73;2.75;;;;;;;12.25;95.54;99954.44;4962287;28;20034;-79
2022/05/24 03:31:03;;;;;;;17.08;4.65;;;;;;;12.25;96.02;99954.44;4994611;28;20027;-78
2022/05/24 03:33:28;;;;;;;18.33;4.10;;;;;;;12.25;96.12;99957.16;4985961;28;20043;-79
2022/05/24 03:35:53;;;;;;;16.75;3.70;;;;;;;12.21;95.45;99969.41;4975166;28;20049;-80
2022/05/24 03:38:18;;;;;;;17.67;3.90;;;;;;;12.25;94.94;99982.25;4975735;28;20106;-79
2022/05/24 03:40:44;;;;;;;18.98;3.78;;;;;;;12.28;95.21;99975.59;4976994;28;20029;-79
2022/05/24 03:43:11;;;;;;;20.77;3.83;;;;;;;12.30;95.34;99976.22;4976292;28;20344;-76
2022/05/24 03:45:36;;;;;;;32.90;4.63;;;;;;;12.32;95.19;99966.03;4974791;28;20037;-76
2022/05/24 03:48:02;;;;;;;36.72;5.80;;;;;;;12.32;95.23;99966.03;4974478;28;20321;-76
2022/05/24 03:50:27;;;;;;;21.85;4.00;;;;;;;12.34;95.00;99972.03;4957161;28;20042;-79
2022/05/24 03:52:53;;;;;;;19.20;4.35;;;;;;;12.34;94.94;99988.22;4980964;28;20498;-78
2022/05/24 03:55:18;;;;;;;24.33;4.28;;;;;;;12.36;94.84;99996.13;4978405;28;20033;-79
2022/05/24 03:58:02;;;;;;;21.75;3.58;;;;;;;12.34;95.11;100004.41;4957700;28;20035;-79
2022/05/24 04:00:37;;;;;;;22.70;3.88;;;;;;;12.33;95.08;100005.47;4957304;28;20085;-76
2022/05/24 04:03:03;;;;;;;16.05;3.15;;;;;;;12.33;94.76;100005.47;4956828;28;20526;-79
2022/05/24 04:05:30;;;;;;;19.40;3.40;;;;;;;12.30;94.95;100009.44;4957323;28;20081;-79
2022/05/24 04:07:55;;;;;;;19.90;3.38;;;;;;;12.30;94.95;100020.22;4956962;28;20103;-77
2022/05/24 04:10:21;;;;;;;20.35;3.20;;;;;;;12.27;94.29;100011.72;4974190;28;20042;-79
2022/05/24 04:12:47;;;;;;;18.42;3.25;;;;;;;12.28;94.48;100024.16;4986529;28;20394;-80
2022/05/24 04:15:12;;;;;;;20.27;3.40;;;;;;;12.23;94.46;100019.41;4974167;28;20031;-76
2022/05/24 04:17:38;;;;;;;14.95;3.22;;;;;;;12.24;94.28;100014.81;4974972;28;20058;-77
2022/05/24 04:20:05;;;;;;;18.25;3.25;;;;;;;12.21;94.28;100005.28;4957582;28;20037;-79
2022/05/24 04:22:31;;;;;;;18.47;3.87;;;;;;;12.19;93.83;100003.84;4974407;28;20070;-80
2022/05/24 04:24:57;;;;;;;14.88;3.10;;;;;;;12.18;93.64;100008.41;4975015;28;20066;-77
2022/05/24 04:27:23;;;;;;;25.30;3.83;;;;;;;12.19;93.83;100014.63;4974678;28;20053;-78
2022/05/24 04:29:51;;;;;;;16.48;3.42;;;;;;;12.21;93.86;100012.56;4974200;28;20344;-76
2022/05/24 04:32:17;;;;;;;19.25;3.30;;;;;;;12.20;94.10;100016.31;4978041;28;20348;-79
2022/05/24 04:34:42;;;;;;;21.58;3.10;;;;;;;12.21;94.11;100016.09;4974320;28;20050;-77
2022/05/24 04:37:08;;;;;;;23.65;3.05;;;;;;;12.19;94.13;100015.50;4974471;28;20033;-76
2022/05/24 04:39:34;;;;;;;15.40;2.60;;;;;;;12.20;94.07;100016.31;4956690;28;20042;-78
2022/05/24 04:44:43;;;;;;;18.20;2.40;;;;;;;12.20;93.62;100005.53;4974539;28;20038;-78
2022/05/24 04:47:08;;;;;;;17.48;2.33;;;;;;;12.20;93.02;100000.94;4974224;28;20022;-78
2022/05/24 04:49:35;;;;;;;14.45;2.35;;;;;;;12.25;93.24;100003.00;4973963;28;20031;-78
2022/05/24 04:52:00;;;;;;;16.10;2.65;;;;;;;12.22;93.00;100003.44;4972081;28;20415;-78
2022/05/24 04:54:26;;;;;;;9.82;1.85;;;;;;;12.26;92.22;99999.25;4955973;28;20062;-78
2022/05/24 04:56:51;;;;;;;17.48;2.50;;;;;;;12.25;92.32;100008.41;4973283;28;21180;-78
2022/05/24 04:59:17;;;;;;;13.80;2.22;;;;;;;12.32;91.98;100013.75;4973357;28;20039;-79
2022/05/24 05:01:43;;;;;;;14.50;2.38;;;;;;;12.39;91.57;100014.56;4973199;28;20077;-79
2022/05/24 05:04:08;;;;;;;13.68;2.00;;;;;;;12.41;90.42;100013.31;4973073;28;20084;-78
2022/05/24 05:06:33;;;;;;;18.70;2.15;;;;;;;12.45;89.68;100014.56;4956197;28;20664;-79
2022/05/24 05:08:59;;;;;;;10.98;1.70;;;;;;;12.47;89.08;100034.03;4973110;28;20027;-79
2022/05/24 05:11:24;;;;;;;10.45;2.10;;;;;;;12.43;88.55;100027.44;4973019;28;20022;-80
2022/05/24 05:13:51;;;;;;;7.65;1.92;;;;;;;12.43;88.74;100027.44;4956311;28;20117;-79
2022/05/24 05:16:16;;;;;;;13.40;2.22;;;;;;;12.41;88.91;100043.00;4956364;28;20030;-78
2022/05/24 05:18:41;;;;;;;9.23;2.08;;;;;;;12.36;89.41;100045.50;4981916;28;20030;-80
2022/05/24 05:21:07;;;;;;;19.33;3.83;;;;;;;12.36;90.01;100050.91;4989061;28;20138;-76
2022/05/24 05:23:32;;;;;;;19.52;3.53;;;;;;;12.41;90.14;100045.69;4976427;28;20069;-78
2022/05/24 05:25:57;;;;;;;16.48;3.40;;;;;;;12.49;90.77;100041.94;4955546;28;20086;-78
2022/05/24 05:28:23;;;;;;;14.77;3.90;;;;;;;12.44;90.41;100039.88;4955553;28;20073;-78
2022/05/24 05:33:35;;;;;;;14.45;4.55;;;;;;;12.45;90.56;100046.09;4957983;28;20085;-77
2022/05/24 05:36:02;;;;;;;15.05;4.45;;;;;;;12.54;90.55;100049.41;4924688;28;20066;-77
2022/05/24 05:38:27;;;;;;;13.90;4.28;;;;;;;12.55;90.85;100051.03;4972984;28;20035;-77
2022/05/24 05:40:54;;;;;;;17.30;5.20;;;;;;;12.54;89.91;100055.63;4972603;28;20130;-79
2022/05/24 05:43:20;;;;;;;20.25;5.47;;;;;;;12.64;89.80;100060.56;4972404;28;20134;-77
2022/05/24 05:45:56;;;;;;;22.33;5.72;;;;;;;12.69;89.40;100066.13;4973139;28;20053;-78
2022/05/24 05:48:21;;;;;;;14.60;5.32;;;;;;;12.74;89.40;100071.72;4974020;28;20105;-77
2022/05/24 05:50:47;;;;;;;20.08;6.25;;;;;;;12.55;89.21;100072.63;4973339;28;20058;-78
2022/05/24 05:53:13;;;;;;;16.02;5.80;;;;;;;12.42;89.78;100082.44;4972617;28;20126;-78
2022/05/24 05:55:41;;;;;;;20.13;6.93;;;;;;;12.28;90.08;100091.63;4972923;28;20113;-77
2022/05/24 05:58:06;;;;;;;19.45;7.43;;;;;;;12.18;91.06;100104.72;4972618;28;20042;-73
2022/05/24 06:00:31;;;;;;;16.42;7.53;;;;;;;12.08;92.15;100105.97;4953377;28;20356;-75
2022/05/24 06:02:57;;;;;;;20.85;7.97;;;;;;;12.08;92.88;100111.38;4972698;28;20082;-75
2022/05/24 06:05:22;;;;;;;15.50;6.90;;;;;;;12.15;93.24;100115.94;4972374;28;20479;-77
2022/05/24 06:07:47;;;;;;;29.15;8.77;;;;;;;12.20;93.15;100118.81;4955378;28;20345;-78
2022/05/24 06:10:13;;;;;;;17.60;6.95;;;;;;;12.29;93.70;100121.06;4940992;28;20114;-77
2022/05/24 06:12:38;;;;;;;15.40;6.75;;;;;;;12.20;93.18;100114.25;4972008;28;20090;-77
2022/05/24 06:15:04;;;;;;;23.58;7.60;;;;;;;12.24;93.31;100130.84;4973837;28;20054;-77
2022/05/24 06:17:29;;;;;;;14.35;6.95;;;;;;;12.25;93.62;100132.50;4974029;28;20037;-79
2022/05/24 06:20:01;;;;;;;19.85;6.60;;;;;;;12.29;93.50;100133.72;4938721;28;20130;-78
2022/05/24 06:22:27;;;;;;;16.77;5.07;;;;;;;12.26;92.59;100128.75;4955119;28;20031;-76
2022/05/24 06:24:52;;;;;;;16.05;3.78;;;;;;;12.25;91.98;100137.91;4972342;28;20042;-77
2022/05/24 06:27:21;;;;;;;11.02;2.53;;;;;;;12.23;89.86;100139.97;4972955;28;20363;-75
2022/05/24 06:29:46;;;;;;;9.82;1.70;;;;;;;12.13;86.59;100139.56;4955277;28;20446;-78
2022/05/24 06:32:11;;;;;;;7.05;1.55;;;;;;;12.10;85.47;100157.00;4973166;28;20110;-76
2022/05/24 06:34:37;;;;;;;7.15;1.35;;;;;;;12.11;85.67;100142.47;4955647;28;20368;-78
2022/05/24 06:37:02;;;;;;;3.55;1.13;;;;;;;12.14;85.18;100149.31;4972132;28;20508;-78
2022/05/24 06:39:28;;;;;;;5.00;1.23;;;;;;;12.10;83.80;100146.22;4972447;28;20478;-78
2022/05/24 06:41:53;;;;;;;6.93;1.58;;;;;;;12.14;84.07;100149.31;4973877;28;20023;-76
2022/05/24 06:44:18;;;;;;;7.35;1.10;;;;;;;12.27;83.87;100152.84;4960510;28;20026;-76
2022/05/24 06:46:44;;;;;;;5.18;1.35;;;;;;;12.58;82.54;100153.19;4981643;28;20081;-78
2022/05/24 06:49:11;;;;;;;2.28;1.13;;;;;;;12.64;82.18;100171.25;4989441;28;20027;-75
2022/05/24 06:51:36;;;;;;;5.68;1.25;;;;;;;12.72;81.78;100157.53;4981824;28;20116;-76
2022/05/24 06:54:01;;;;;;;10.35;1.00;;;;;;;13.32;80.30;100176.19;4975602;28;20031;-76
2022/05/24 06:56:27;;;;;;;3.92;0.80;;;;;;;14.04;77.15;100165.91;4958467;28;20038;-78
2022/05/24 07:02:25;;;;;;;8.52;1.50;;;;;;;14.14;74.24;100174.38;4976367;28;20037;-75
2022/05/24 07:04:25;;;;;;;3.88;0.85;;;;;;;13.94;74.75;100171.81;4975819;28;20125;-79
2022/05/24 07:06:50;;;;;;;8.05;1.20;;;;;;;13.87;75.54;100173.75;4958244;28;20495;-76
2022/05/24 07:09:16;;;;;;;7.35;1.10;;;;;;;13.52;76.31;100176.06;4975522;28;20471;-77
2022/05/24 07:11:41;;;;;;;9.45;1.60;;;;;;;13.39;77.35;100179.69;4975695;28;20442;-76
2022/05/24 07:14:06;;;;;;;5.07;1.17;;;;;;;13.42;77.11;100176.53;4976044;28;20039;-78
2022/05/24 07:16:32;;;;;;;5.43;1.08;;;;;;;13.13;77.61;100178.72;4974981;28;20525;-76
2022/05/24 07:18:57;;;;;;;5.63;0.90;;;;;;;12.98;78.51;100190.84;4975366;28;20031;-77
2022/05/24 07:21:22;;;;;;;13.07;1.27;;;;;;;12.82;80.63;100193.00;4975007;28;20113;-76
2022/05/24 07:23:48;;;;;;;7.63;1.23;;;;;;;12.80;82.18;100197.78;4975009;28;20022;-75
2022/05/24 07:26:15;;;;;;;6.35;1.50;;;;;;;12.86;83.57;100202.31;4975148;28;20026;-77
2022/05/24 07:28:41;;;;;;;8.32;1.40;;;;;;;12.85;83.27;100208.78;4975106;28;20031;-77
2022/05/24 07:31:07;;;;;;;10.68;1.30;;;;;;;12.88;83.28;100210.22;4975003;28;20026;-74
2022/05/24 07:33:33;;;;;;;6.38;1.20;;;;;;;12.90;82.75;100208.97;4977178;28;20051;-77
2022/05/24 07:35:59;;;;;;;14.05;1.33;;;;;;;13.06;83.41;100215.78;4958455;28;20035;-77
2022/05/24 07:38:24;;;;;;;7.13;1.10;;;;;;;12.99;80.55;100216.84;4975354;28;20026;-77
2022/05/24 07:46:17;;;;;;;9.88;1.60;;;;;;;13.54;82.71;100237.00;4974958;28;20057;-78
2022/05/24 07:48:43;;;;;;;2.45;1.25;;;;;;;13.17;80.82;100235.91;4974653;28;20031;-78
2022/05/24 07:51:08;;;;;;;5.15;1.63;;;;;;;12.98;81.09;100231.38;4957323;28;20109;-77
2022/05/24 07:53:34;;;;;;;2.42;1.50;;;;;;;12.74;82.50;100239.13;4973419;28;20034;-77
2022/05/24 07:56:00;;;;;;;5.50;1.75;;;;;;;12.74;84.28;100247.22;4974065;28;20138;-77
2022/05/24 07:58:26;;;;;;;4.53;1.92;;;;;;;12.58;85.43;100243.09;4974352;28;20491;-78
2022/05/24 08:00:54;;;;;;;4.15;1.60;;;;;;;12.16;87.54;100241.66;4941019;28;20506;-78
2022/05/24 08:03:20;;;;;;;5.60;1.88;;;;;;;11.95;89.36;100240.81;4974872;28;20026;-78
2022/05/24 08:05:45;;;;;;;6.97;1.85;;;;;;;11.79;90.65;100249.25;4974693;28;20035;-78
2022/05/24 08:08:10;;;;;;;5.03;1.88;;;;;;;11.75;92.01;100251.53;4974421;28;20035;-79
2022/05/24 08:10:39;;;;;;;11.00;2.30;;;;;;;11.62;92.70;100263.13;4974636;28;20035;-78
2022/05/24 08:13:08;;;;;;;4.88;2.10;;;;;;;11.55;93.22;100261.44;4974458;28;20111;-79
2022/05/24 08:15:34;;;;;;;11.57;3.78;;;;;;;11.65;94.28;100270.78;4960182;28;20030;-78
2022/05/24 08:17:59;;;;;;;7.57;2.55;;;;;;;11.77;94.94;100278.28;4987442;28;20031;-78
2022/05/24 08:20:25;;;;;;;15.07;3.70;;;;;;;11.78;94.79;100282.66;4976682;28;20027;-77
2022/05/24 08:22:50;;;;;;;13.32;4.40;;;;;;;11.96;94.88;100279.41;4973734;28;20383;-77
2022/05/24 08:25:16;;;;;;;11.55;4.40;;;;;;;12.30;95.26;100275.72;4974071;28;20035;-79
2022/05/24 08:27:42;;;;;;;6.13;4.53;;;;;;;12.82;95.86;100281.28;4956491;28;20054;-77
2022/05/24 08:30:10;;;;;;;9.88;4.88;;;;;;;13.24;94.28;100279.09;4974264;28;20038;-77
2022/05/24 08:32:36;;;;;;;17.23;3.83;;;;;;;13.55;89.22;100284.59;4973988;28;20550;-78
2022/05/24 08:35:01;;;;;;;8.20;2.95;;;;;;;13.57;84.75;100290.63;4973505;28;20051;-77
2022/05/24 08:37:27;;;;;;;12.38;3.63;;;;;;;13.84;86.17;100294.03;4973426;28;20079;-77
2022/05/24 08:39:57;;;;;;;12.15;3.83;;;;;;;13.91;86.21;100304.00;4973656;28;20027;-76
2022/05/24 08:42:27;;;;;;;14.25;4.22;;;;;;;13.62;86.77;100322.44;4973236;28;20077;-75
2022/05/24 08:50:44;;;;;;;9.13;2.47;;;;;;;12.87;89.88;100324.69;4958324;28;20093;-75
2022/05/24 08:53:11;;;;;;;11.35;2.10;;;;;;;12.67;89.57;100327.41;4955996;28;20027;-75
2022/05/24 08:55:37;;;;;;;7.72;1.85;;;;;;;12.90;90.70;100329.66;4956122;28;20252;-74
2022/05/24 08:58:03;;;;;;;8.10;2.30;;;;;;;13.04;90.98;100325.91;4975065;28;20065;-78
2022/05/24 09:00:33;;;;;;;14.80;2.92;;;;;;;13.22;91.96;100327.97;4956014;28;20054;-78
2022/05/24 09:02:58;;;;;;;10.57;2.42;;;;;;;13.43;92.13;100344.94;4956912;28;20038;-77
2022/05/24 09:05:30;;;;;;;19.17;3.03;;;;;;;13.47;90.94;100343.50;4974113;28;20027;-77
2022/05/24 09:08:04;;;;;;;15.13;2.97;;;;;;;13.71;90.26;100353.59;4955883;28;20027;-77
2022/05/24 09:10:46;;;;;;;12.00;3.25;;;;;;;13.59;88.44;100349.91;4973192;28;20525;-77
2022/05/24 09:13:31;;;;;;;7.88;3.53;;;;;;;13.60;87.38;100351.56;4955849;28;20030;-79
2022/05/24 09:16:13;;;;;;;9.02;4.35;;;;;;;13.69;87.81;100355.69;4955839;28;20035;-77
2022/05/24 09:19:06;;;;;;;9.90;5.25;;;;;;;13.40;85.55;100367.84;4973176;28;20082;-75
2022/05/24 09:21:35;;;;;;;17.63;5.72;;;;;;;13.29;86.42;100374.72;4973030;28;20029;-75
2022/05/24 09:24:09;;;;;;;14.98;5.63;;;;;;;13.14;85.71;100384.94;4972928;28;20113;-78
2022/05/24 09:27:01;;;;;;;18.88;6.10;;;;;;;13.05;86.58;100378.06;4955583;28;20243;-76
2022/05/24 09:29:26;;;;;;;14.00;5.95;;;;;;;13.04;86.49;100388.03;4973288;28;20058;-75
2022/05/24 09:31:54;;;;;;;14.48;5.50;;;;;;;12.98;84.74;100391.59;4956359;28;20031;-78
2022/05/24 09:34:19;;;;;;;17.30;6.25;;;;;;;13.11;86.64;100396.13;4973719;28;20082;-77
2022/05/24 09:36:56;;;;;;;11.57;5.90;;;;;;;13.39;86.43;100407.56;4974697;28;20061;-74
2022/05/24 09:39:27;;;;;;;23.35;6.32;;;;;;;14.28;88.30;100400.56;4978156;28;20026;-78
2022/05/24 09:42:01;;;;;;;15.88;5.25;;;;;;;14.83;82.47;100407.31;4976861;28;20356;-76
2022/05/24 09:44:28;;;;;;;16.40;4.18;;;;;;;15.05;78.93;100413.16;4960504;28;20022;-75
2022/05/24 09:46:54;;;;;;;7.53;4.15;;;;;;;15.29;79.24;100422.31;4976011;28;20031;-77
2022/05/24 09:49:28;;;;;;;10.18;3.65;;;;;;;15.61;75.64;100414.06;4980698;28;20035;-78
2022/05/24 09:51:58;;;;;;;10.82;4.20;;;;;;;15.93;75.70;100426.47;4964607;28;20527;-75
2022/05/24 09:54:26;;;;;;;11.07;3.75;;;;;;;16.28;74.08;100439.38;4957007;28;20037;-76
2022/05/24 09:57:06;;;;;;;13.75;3.80;;;;;;;16.55;71.96;100441.72;4956041;28;20031;-76
2022/05/24 09:59:33;;;;;;;14.65;4.63;;;;;;;16.29;73.03;100446.47;4973382;28;20027;-76
2022/05/24 10:01:59;;;;;;;20.05;5.25;;;;;;;15.89;74.77;100457.00;4973426;28;20133;-77
2022/05/24 10:04:27;;;;;;;11.50;4.45;;;;;;;15.27;77.90;100451.53;4972719;28;20024;-76
2022/05/24 10:06:59;;;;;;;13.90;4.35;;;;;;;14.57;80.72;100444.38;4972329;28;20031;-76
2022/05/24 10:09:45;;;;;;;14.07;4.03;;;;;;;14.40;81.04;100448.59;4956546;28;20487;-79
2022/05/24 10:12:19;;;;;;;7.20;3.80;;;;;;;14.73;82.94;100453.84;4957212;28;20047;-77
2022/05/24 10:14:53;;;;;;;11.70;4.00;;;;;;;15.77;84.62;100452.34;4973394;28;20086;-78
2022/05/24 10:17:33;;;;;;;11.40;3.38;;;;;;;16.74;79.41;100467.78;4974726;28;20122;-79
2022/05/24 10:20:01;;;;;;;15.55;3.92;;;;;;;17.16;72.24;100465.06;4980715;28;20023;-77
2022/05/24 10:22:51;;;;;;;12.93;2.78;;;;;;;17.63;67.65;100462.34;4977593;28;20240;-76
2022/05/24 10:25:32;;;;;;;12.10;2.55;;;;;;;17.34;67.70;100464.94;4976549;28;20059;-78
2022/05/24 10:28:28;;;;;;;8.02;2.40;;;;;;;17.78;67.95;100465.41;4963773;28;20027;-76
2022/05/24 10:31:14;;;;;;;4.93;2.50;;;;;;;17.64;64.96;100480.34;4976593;28;20035;-78
2022/05/24 10:39:40;;;;;;;8.27;2.38;;;;;;;17.09;65.48;100491.56;4976222;28;20041;-76
2022/05/24 10:42:13;;;;;;;6.28;2.28;;;;;;;16.68;65.76;100487.72;4958629;28;20050;-76
2022/05/24 10:44:44;;;;;;;11.55;2.53;;;;;;;16.29;65.29;100487.19;4975469;28;20086;-76
2022/05/24 10:47:13;;;;;;;17.02;3.10;;;;;;;16.08;69.47;100493.09;4958187;28;20031;-75
2022/05/24 10:49:49;;;;;;;5.95;1.92;;;;;;;15.97;67.54;100495.50;4975857;28;20050;-76
2022/05/24 10:52:31;;;;;;;7.28;2.50;;;;;;;16.26;67.89;100505.84;4958586;28;20438;-77
2022/05/24 10:55:06;;;;;;;9.77;2.40;;;;;;;16.80;67.22;100510.38;4958869;28;20114;-74
2022/05/24 10:57:39;;;;;;;12.52;2.63;;;;;;;17.20;66.17;100500.78;4958026;28;20471;-77
2022/05/24 11:00:04;;;;;;;9.88;2.20;;;;;;;17.99;65.58;100510.28;4958280;28;20030;-75
2022/05/24 11:02:38;;;;;;;6.65;2.10;;;;;;;18.55;60.53;100507.88;4975640;28;20026;-77
2022/05/24 11:05:12;;;;;;;8.77;2.25;;;;;;;18.24;61.80;100502.88;4975771;28;20118;-79
2022/05/24 11:07:37;;;;;;;13.73;2.30;;;;;;;17.98;60.36;100503.19;4958081;28;20066;-77
2022/05/24 11:10:09;;;;;;;9.05;2.15;;;;;;;18.34;60.69;100493.03;4975458;28;20063;-77
2022/05/24 11:12:56;;;;;;;8.15;2.10;;;;;;;19.25;60.86;100494.97;4958609;28;20030;-77
2022/05/24 11:15:32;;;;;;;11.43;1.75;;;;;;;19.90;55.49;100502.53;4960532;28;20027;-79
2022/05/24 11:18:02;;;;;;;13.13;2.33;;;;;;;19.66;56.68;100512.84;4959015;28;20137;-78
2022/05/24 11:20:37;;;;;;;9.77;2.38;;;;;;;19.18;54.84;100510.69;4975568;28;20027;-78
2022/05/24 11:23:16;;;;;;;8.18;2.05;;;;;;;18.89;55.04;100508.00;4958476;28;20054;-78
2022/05/24 11:25:50;;;;;;;5.65;1.98;;;;;;;18.53;57.63;100509.19;4974999;28;20023;-78
2022/05/24 11:28:25;;;;;;;7.25;2.00;;;;;;;19.40;54.86;100508.84;4957662;28;20038;-76
2022/05/24 11:30:52;;;;;;;16.55;2.00;;;;;;;19.19;53.21;100517.78;4957735;28;20027;-74
2022/05/24 11:33:35;;;;;;;9.20;2.10;;;;;;;19.35;55.28;100506.03;4957488;28;20043;-75
2022/05/24 11:36:31;;;;;;;9.85;2.40;;;;;;;19.58;54.35;100520.59;4957108;28;20391;-75
2022/05/24 11:39:06;;;;;;;7.47;1.63;;;;;;;20.10;54.65;100528.47;4975086;28;20164;-75
2022/05/24 11:41:31;;;;;;;7.82;2.10;;;;;;;20.74;50.93;100528.72;4957538;28;20050;-76
2022/05/24 11:44:00;;;;;;;10.10;2.67;;;;;;;20.65;51.76;100529.47;4977049;28;20033;-79
2022/05/24 11:46:35;;;;;;;12.93;2.72;;;;;;;20.02;47.76;100539.84;4974896;28;20030;-77
2022/05/24 11:49:12;;;;;;;11.85;2.10;;;;;;;19.38;53.13;100538.31;4975393;28;20022;-77
2022/05/24 11:51:41;;;;;;;5.80;2.00;;;;;;;20.15;53.10;100534.00;4976234;28;20387;-76
2022/05/24 11:54:29;;;;;;;6.22;1.75;;;;;;;20.86;49.54;100546.91;4975210;28;20321;-78
2022/05/24 11:57:15;;;;;;;7.32;1.75;;;;;;;20.58;48.95;100537.84;4967753;28;20054;-77
2022/05/24 11:59:40;;;;;;;7.07;1.55;;;;;;;20.24;47.56;100539.84;4974940;28;20031;-75
2022/05/24 12:02:34;;;;;;;5.40;1.53;;;;;;;20.14;46.17;100546.00;4974256;28;20475;-77
2022/05/24 12:07:56;;;;;;;9.55;1.77;;;;;;;19.17;48.82;100548.06;4974381;28;20045;-75